Unalaska Airport
PADU : rendu visible

Aérodrome :











RETROUVEZ-NOUS SUR...

 
LOGIN :

S'inscrire | Disclaimer

   EN    FR    IT 

 









Légende :    VFR   VFR Marginal   IFR   IFR Intensif   IFR Très Intensif
Visi : 
Plafond : 
>= 8 km
>= 3000ft
5 à 8 km
1000 à 3000 ft
1500m à 5 km
500 à 1000 ft
800 à 1500m
200 à 500 ft
< 800m
< 200 ft
Symboles :   Orages  Brouillard  Fortes neiges  Fortes précipitations  Vent > 20 kt






- Altitude de l'aérodrome : 22 ft
- Code IATA : DUT


PADU - Unalaska

DERNIER METAR :
  • 120856Z AUTO 16004KT 10SM OVC013 10/09 A2976 RMK AO2 SLP080 60005 T01000089 401110089 51004

METARs EXPIRÉS :
  • 120756Z AUTO 16006KT 10SM OVC011 11/09 A2976 RMK AO2 RAE47 SLP080 P0002 T01060089
  • 120732Z AUTO VRB04KT 10SM -RA OVC009 11/09 A2975 RMK AO2 P0002
  • 120656Z AUTO 00000KT 10SM -RA OVC013 11/09 A2975 RMK AO2 SLP076 P0003 T01110089

TAF PADU
Valide du 12 à 06h jusqu'au 13 à 06h UTC


120540Z 1206/1306 10006KT P6SM -SHRA SCT005 OVC015
FIR PAZA / Amérique du Nord



MET'MAP, la Météo Aéronautique d'un coup d'oeil ! - Copyright ORBIFLY Décembre 2007 - Disclaimer

ORBIFLY MET'MAP TEAM :

Programmation & Développement : Alexandra Zaïnal
Sur une idée originale de : Baudouin d'Aumeries
Assistance à la programmation : Marc-Olivier Méhu
Soutien technique & logistique : Manuel Goepfert

Contact : metmap@orbifly.com




SOURCES & CREDITS :

   NOAA       Earth
Advisory